Heritage Ranch, California
Current Conditions -  °F | °C
As of 6:53 PM on Tuesday 25 Nov 2014 (Local Time) from KPRB Reporting Station
Clear Clear  
Wind Chill: 59°   Ceiling: Unl
Heat Index: 59°   Visibility: 10mi
Dew Point: 39°   Wind: 10mph
Humidity: 48%   Direction: 100°E
Pressure: 30.35"   Gusts: NA
Location:  35.6618°N, 120.707°W
Report Text: KPRB 260253Z AUTO 10009KT 10SM CLR 15/04 A3035 RMK AO2 SLP277 T01500039 53006 TSNO
Loading
Personal Weather Stations






























Interactive Weather Map New forecast layout! Learn more

10-Day Weather Forecast

Advertisements
Track Severe Weather on mobile